This is the latest recevied weather packets stored in our database for station/object WB4ROX. If no packets are shown the sender has not sent any weather packets the latest 1 day(s).
| Time | Temp. | Humidity | Pressure | Rain* | Wind** | Luminosity | Snow |
|---|---|---|---|---|---|---|---|
| 1777984129 | 10.56° C | 57% | 1018.8 hPa | 0 mm | 1.79 m/s, 87° | 58 W/m² | - |
| 1777983827 | 10° C | 58% | 1018.8 hPa | 0 mm | 0.89 m/s, 106° | 66 W/m² | - |
| 1777983523 | 10° C | 59% | 1018.9 hPa | 0 mm | 1.79 m/s, 340° | 39 W/m² | - |
| 1777983220 | 10° C | 59% | 1018.6 hPa | 0 mm | 0.45 m/s, 89° | 33 W/m² | - |
| 1777982916 | 10° C | 60% | 1018.8 hPa | 0 mm | 1.34 m/s, 274° | 32 W/m² | - |
| 1777982612 | 10° C | 60% | 1018.8 hPa | 0 mm | 0 m/s | 36 W/m² | - |
| 1777982311 | 9.44° C | 61% | 1018.6 hPa | 0 mm | 1.34 m/s, 275° | 30 W/m² | - |
| 1777982008 | 9.44° C | 61% | 1018.6 hPa | 0 mm | 0.45 m/s, 75° | 29 W/m² | - |
| 1777981706 | 9.44° C | 61% | 1018.5 hPa | 0 mm | 0 m/s | 30 W/m² | - |
| 1777981403 | 9.44° C | 61% | 1018.5 hPa | 0 mm | 0 m/s | 28 W/m² | - |
| 1777981099 | 9.44° C | 61% | 1018.3 hPa | 0 mm | 0.45 m/s, 79° | 26 W/m² | - |
| 1777980795 | 9.44° C | 60% | 1018.2 hPa | 0 mm | 0 m/s | 25 W/m² | - |
| 1777980491 | 9.44° C | 60% | 1018.3 hPa | 0 mm | 0.45 m/s, 107° | 23 W/m² | - |
| 1777980189 | 8.89° C | 60% | 1018.2 hPa | 0 mm | 0.45 m/s, 82° | 22 W/m² | - |
| 1777979884 | 8.89° C | 61% | 1018.1 hPa | 0 mm | 0.89 m/s, 84° | 21 W/m² | - |
| 1777979580 | 8.89° C | 61% | 1018.1 hPa | 0 mm | 0 m/s | 20 W/m² | - |
| 1777979276 | 8.89° C | 61% | 1018.2 hPa | 0 mm | 1.34 m/s, 356° | 19 W/m² | - |
| 1777978974 | 8.89° C | 61% | 1018.1 hPa | 0 mm | 0.45 m/s, 2° | 17 W/m² | - |
| 1777978670 | 8.89° C | 61% | 1018.1 hPa | 0 mm | 0.45 m/s, 60° | 14 W/m² | - |
| 1777978366 | 8.89° C | 61% | 1018.3 hPa | 0 mm | 1.34 m/s, 287° | 11 W/m² | - |
| 1777978063 | 8.89° C | 61% | 1018.2 hPa | 0 mm | 0.45 m/s, 290° | 9 W/m² | - |
| 1777977760 | 8.89° C | 60% | 1017.9 hPa | 0 mm | 0.45 m/s, 121° | 6 W/m² | - |
| 1777977456 | 9.44° C | 59% | 1018.1 hPa | 0 mm | 1.34 m/s, 298° | 4 W/m² | - |
| 1777977154 | 9.44° C | 59% | 1018.1 hPa | 0 mm | 0.89 m/s, 308° | 3 W/m² | - |
| 1777976851 | 9.44° C | 58% | 1018.1 hPa | 0 mm | 0.89 m/s, 75° | 1 W/m² | - |
* Rain latest hour (hover to see other rain measurements)
** Current wind speed in m/s (hover to see current wind gust speed)